sensor_id;sensor_type;location;lat;lon;timestamp;pressure;altitude;pressure_sealevel;temperature;humidity
77288;BME280;66345;42.694;23.346;2023-07-22T00:00:44;95405.31;;;25.28;47.93
77288;BME280;66345;42.694;23.346;2023-07-22T00:03:09;95408.97;;;25.08;48.12
77288;BME280;66345;42.694;23.346;2023-07-22T00:05:35;95414.41;;;25.03;48.62
77288;BME280;66345;42.694;23.346;2023-07-22T00:08:00;95420.75;;;24.88;48.66
77288;BME280;66345;42.694;23.346;2023-07-22T00:10:26;95429.28;;;25.15;48.04
77288;BME280;66345;42.694;23.346;2023-07-22T00:12:51;95425.44;;;25.22;48.19
77288;BME280;66345;42.694;23.346;2023-07-22T00:15:17;95428.84;;;25.03;49.05
77288;BME280;66345;42.694;23.346;2023-07-22T00:17:42;95421.50;;;24.99;49.43
77288;BME280;66345;42.694;23.346;2023-07-22T00:20:09;95417.47;;;24.91;50.02
77288;BME280;66345;42.694;23.346;2023-07-22T00:22:38;95413.88;;;25.01;49.46
77288;BME280;66345;42.694;23.346;2023-07-22T00:25:11;95416.31;;;25.02;49.82
77288;BME280;66345;42.694;23.346;2023-07-22T00:27:41;95417.72;;;24.95;50.08
77288;BME280;66345;42.694;23.346;2023-07-22T00:30:07;95422.59;;;24.98;49.80
77288;BME280;66345;42.694;23.346;2023-07-22T00:32:33;95416.31;;;25.07;50.46
77288;BME280;66345;42.694;23.346;2023-07-22T00:34:59;95430.22;;;24.96;50.45
77288;BME280;66345;42.694;23.346;2023-07-22T00:37:24;95426.78;;;24.80;51.51
77288;BME280;66345;42.694;23.346;2023-07-22T00:39:50;95420.28;;;24.71;51.46
77288;BME280;66345;42.694;23.346;2023-07-22T00:42:16;95425.75;;;24.66;52.01
77288;BME280;66345;42.694;23.346;2023-07-22T00:44:41;95426.81;;;24.70;51.97
77288;BME280;66345;42.694;23.346;2023-07-22T00:47:07;95424.06;;;24.80;52.54
77288;BME280;66345;42.694;23.346;2023-07-22T00:49:34;95427.09;;;24.68;51.51
77288;BME280;66345;42.694;23.346;2023-07-22T00:52:02;95427.63;;;24.70;50.79
77288;BME280;66345;42.694;23.346;2023-07-22T00:54:30;95448.81;;;24.63;50.42
77288;BME280;66345;42.694;23.346;2023-07-22T00:56:57;95441.56;;;24.48;51.21
77288;BME280;66345;42.694;23.346;2023-07-22T00:59:24;95441.34;;;24.34;51.35
77288;BME280;66345;42.694;23.346;2023-07-22T01:01:49;95433.53;;;24.13;51.19
77288;BME280;66345;42.694;23.346;2023-07-22T01:04:16;95439.50;;;23.94;51.99
77288;BME280;66345;42.694;23.346;2023-07-22T01:06:44;95424.34;;;23.93;52.20
77288;BME280;66345;42.694;23.346;2023-07-22T01:09:10;95430.88;;;23.77;53.05
77288;BME280;66345;42.694;23.346;2023-07-22T01:11:36;95416.22;;;23.83;52.38
77288;BME280;66345;42.694;23.346;2023-07-22T01:14:02;95420.56;;;23.84;52.02
77288;BME280;66345;42.694;23.346;2023-07-22T01:16:29;95413.50;;;23.93;52.71
77288;BME280;66345;42.694;23.346;2023-07-22T01:18:55;95426.28;;;23.67;53.11
77288;BME280;66345;42.694;23.346;2023-07-22T01:21:22;95424.91;;;23.65;52.82
77288;BME280;66345;42.694;23.346;2023-07-22T01:23:49;95423.28;;;23.48;53.97
77288;BME280;66345;42.694;23.346;2023-07-22T01:26:15;95416.78;;;23.44;54.46
77288;BME280;66345;42.694;23.346;2023-07-22T01:28:41;95419.50;;;23.60;53.80
77288;BME280;66345;42.694;23.346;2023-07-22T01:31:06;95421.69;;;23.68;53.23
77288;BME280;66345;42.694;23.346;2023-07-22T01:33:32;95411.09;;;23.51;53.50
77288;BME280;66345;42.694;23.346;2023-07-22T01:35:57;95409.47;;;23.45;54.15
77288;BME280;66345;42.694;23.346;2023-07-22T01:38:23;95411.91;;;23.31;54.75
77288;BME280;66345;42.694;23.346;2023-07-22T01:40:48;95407.56;;;23.45;54.61
77288;BME280;66345;42.694;23.346;2023-07-22T01:43:14;95404.03;;;23.55;53.98
77288;BME280;66345;42.694;23.346;2023-07-22T01:45:39;95404.06;;;23.60;54.04
77288;BME280;66345;42.694;23.346;2023-07-22T01:48:05;95413.00;;;23.45;54.50
77288;BME280;66345;42.694;23.346;2023-07-22T01:50:31;95404.88;;;23.35;55.25
77288;BME280;66345;42.694;23.346;2023-07-22T01:52:57;95404.03;;;23.19;55.70
77288;BME280;66345;42.694;23.346;2023-07-22T01:55:23;95404.59;;;23.32;55.67
77288;BME280;66345;42.694;23.346;2023-07-22T01:57:48;95401.88;;;23.32;55.11
77288;BME280;66345;42.694;23.346;2023-07-22T02:00:14;95403.25;;;23.14;55.49
77288;BME280;66345;42.694;23.346;2023-07-22T02:02:42;95393.50;;;23.23;54.60
77288;BME280;66345;42.694;23.346;2023-07-22T02:05:08;95392.41;;;23.34;54.62
77288;BME280;66345;42.694;23.346;2023-07-22T02:07:37;95394.81;;;23.00;56.11
77288;BME280;66345;42.694;23.346;2023-07-22T02:10:03;95399.72;;;23.08;56.30
77288;BME280;66345;42.694;23.346;2023-07-22T02:12:28;95404.31;;;23.13;56.20
77288;BME280;66345;42.694;23.346;2023-07-22T02:14:53;95403.78;;;23.06;56.82
77288;BME280;66345;42.694;23.346;2023-07-22T02:17:19;95388.09;;;23.13;56.29
77288;BME280;66345;42.694;23.346;2023-07-22T02:19:45;95400.25;;;23.31;55.61
77288;BME280;66345;42.694;23.346;2023-07-22T02:22:11;95411.09;;;23.15;55.83
77288;BME280;66345;42.694;23.346;2023-07-22T02:24:37;95415.13;;;22.97;56.96
77288;BME280;66345;42.694;23.346;2023-07-22T02:27:03;95410.47;;;22.83;57.30
77288;BME280;66345;42.694;23.346;2023-07-22T02:29:29;95418.66;;;23.08;56.88
77288;BME280;66345;42.694;23.346;2023-07-22T02:31:57;95421.63;;;23.02;57.71
77288;BME280;66345;42.694;23.346;2023-07-22T02:34:23;95423.50;;;22.91;58.82
77288;BME280;66345;42.694;23.346;2023-07-22T02:36:48;95421.34;;;23.03;57.17
77288;BME280;66345;42.694;23.346;2023-07-22T02:39:14;95417.81;;;22.92;57.81
77288;BME280;66345;42.694;23.346;2023-07-22T02:41:39;95424.78;;;22.78;58.40
77288;BME280;66345;42.694;23.346;2023-07-22T02:44:05;95416.94;;;22.77;58.25
77288;BME280;66345;42.694;23.346;2023-07-22T02:46:30;95410.97;;;22.69;58.76
77288;BME280;66345;42.694;23.346;2023-07-22T02:48:58;95410.69;;;22.61;59.50
77288;BME280;66345;42.694;23.346;2023-07-22T02:51:24;95417.94;;;22.45;60.58
77288;BME280;66345;42.694;23.346;2023-07-22T02:53:49;95414.44;;;22.45;60.88
77288;BME280;66345;42.694;23.346;2023-07-22T02:56:15;95417.66;;;22.47;60.66
77288;BME280;66345;42.694;23.346;2023-07-22T02:58:41;95417.94;;;22.50;60.91
77288;BME280;66345;42.694;23.346;2023-07-22T03:01:07;95424.22;;;22.61;60.71
77288;BME280;66345;42.694;23.346;2023-07-22T03:03:34;95421.97;;;22.42;60.98
77288;BME280;66345;42.694;23.346;2023-07-22T03:06:03;95423.03;;;22.31;61.60
77288;BME280;66345;42.694;23.346;2023-07-22T03:08:32;95417.66;;;22.47;60.64
77288;BME280;66345;42.694;23.346;2023-07-22T03:10:57;95432.72;;;22.22;61.98
77288;BME280;66345;42.694;23.346;2023-07-22T03:13:23;95424.56;;;22.17;62.47
77288;BME280;66345;42.694;23.346;2023-07-22T03:15:48;95425.44;;;22.33;61.58
77288;BME280;66345;42.694;23.346;2023-07-22T03:18:14;95427.88;;;22.29;61.60
77288;BME280;66345;42.694;23.346;2023-07-22T03:20:40;95425.16;;;22.24;62.44
77288;BME280;66345;42.694;23.346;2023-07-22T03:23:06;95418.47;;;22.37;62.40
77288;BME280;66345;42.694;23.346;2023-07-22T03:25:32;95426.78;;;22.25;62.85
77288;BME280;66345;42.694;23.346;2023-07-22T03:28:03;95423.25;;;22.25;62.90
77288;BME280;66345;42.694;23.346;2023-07-22T03:30:29;95434.97;;;22.46;62.11
77288;BME280;66345;42.694;23.346;2023-07-22T03:32:55;95435.84;;;22.66;61.63
77288;BME280;66345;42.694;23.346;2023-07-22T03:35:21;95442.88;;;22.62;61.69
77288;BME280;66345;42.694;23.346;2023-07-22T03:37:46;95446.97;;;22.80;61.80
77288;BME280;66345;42.694;23.346;2023-07-22T03:40:12;95447.53;;;22.77;61.82
77288;BME280;66345;42.694;23.346;2023-07-22T03:42:49;95452.19;;;22.87;60.22
77288;BME280;66345;42.694;23.346;2023-07-22T03:45:16;95460.84;;;22.94;58.84
77288;BME280;66345;42.694;23.346;2023-07-22T03:47:44;95450.88;;;23.00;58.36
77288;BME280;66345;42.694;23.346;2023-07-22T03:50:10;95465.22;;;23.05;57.43
77288;BME280;66345;42.694;23.346;2023-07-22T03:52:36;95455.19;;;23.01;57.39
77288;BME280;66345;42.694;23.346;2023-07-22T03:55:01;95460.09;;;23.14;57.19
77288;BME280;66345;42.694;23.346;2023-07-22T03:57:27;95468.75;;;23.26;56.41
77288;BME280;66345;42.694;23.346;2023-07-22T03:59:54;95474.72;;;23.33;56.52
77288;BME280;66345;42.694;23.346;2023-07-22T04:02:19;95482.06;;;23.38;57.48
77288;BME280;66345;42.694;23.346;2023-07-22T04:04:45;95480.69;;;23.30;56.91
77288;BME280;66345;42.694;23.346;2023-07-22T04:07:10;95482.06;;;23.43;56.20
77288;BME280;66345;42.694;23.346;2023-07-22T04:09:35;95473.13;;;23.47;56.44
77288;BME280;66345;42.694;23.346;2023-07-22T04:12:01;95475.81;;;23.32;57.01
77288;BME280;66345;42.694;23.346;2023-07-22T04:14:26;95482.38;;;23.62;55.94
77288;BME280;66345;42.694;23.346;2023-07-22T04:16:52;95479.09;;;23.60;55.77
77288;BME280;66345;42.694;23.346;2023-07-22T04:19:17;95469.88;;;23.56;56.35
77288;BME280;66345;42.694;23.346;2023-07-22T04:21:43;95478.00;;;23.56;56.97
77288;BME280;66345;42.694;23.346;2023-07-22T04:24:08;95472.88;;;23.74;56.62
77288;BME280;66345;42.694;23.346;2023-07-22T04:26:35;95474.22;;;23.97;55.44
77288;BME280;66345;42.694;23.346;2023-07-22T04:29:01;95468.25;;;23.90;56.10
77288;BME280;66345;42.694;23.346;2023-07-22T04:31:26;95473.38;;;24.02;56.12
77288;BME280;66345;42.694;23.346;2023-07-22T04:33:52;95481.50;;;24.27;55.93
77288;BME280;66345;42.694;23.346;2023-07-22T04:36:17;95485.28;;;24.42;56.13
77288;BME280;66345;42.694;23.346;2023-07-22T04:38:43;95484.13;;;24.58;54.82
77288;BME280;66345;42.694;23.346;2023-07-22T04:41:08;95485.22;;;24.57;55.25
77288;BME280;66345;42.694;23.346;2023-07-22T04:43:33;95493.63;;;24.55;54.76
77288;BME280;66345;42.694;23.346;2023-07-22T04:45:59;95495.81;;;24.53;55.31
77288;BME280;66345;42.694;23.346;2023-07-22T04:48:24;95486.34;;;24.46;55.26
77288;BME280;66345;42.694;23.346;2023-07-22T04:50:50;95484.66;;;24.65;55.18
77288;BME280;66345;42.694;23.346;2023-07-22T04:53:17;95484.81;;;24.84;54.23
77288;BME280;66345;42.694;23.346;2023-07-22T04:55:42;95481.69;;;25.16;53.27
77288;BME280;66345;42.694;23.346;2023-07-22T04:58:08;95479.97;;;25.35;52.78
77288;BME280;66345;42.694;23.346;2023-07-22T05:00:35;95492.97;;;25.38;52.72
77288;BME280;66345;42.694;23.346;2023-07-22T05:03:02;95500.91;;;25.30;52.10
77288;BME280;66345;42.694;23.346;2023-07-22T05:05:28;95500.44;;;25.62;51.13
77288;BME280;66345;42.694;23.346;2023-07-22T05:07:53;95508.03;;;25.99;51.13
77288;BME280;66345;42.694;23.346;2023-07-22T05:10:19;95507.94;;;26.09;51.06
77288;BME280;66345;42.694;23.346;2023-07-22T05:12:45;95505.50;;;26.37;50.61
77288;BME280;66345;42.694;23.346;2023-07-22T05:15:11;95503.84;;;26.89;48.88
77288;BME280;66345;42.694;23.346;2023-07-22T05:17:38;95505.19;;;27.90;46.78
77288;BME280;66345;42.694;23.346;2023-07-22T05:20:04;95498.81;;;29.51;42.78
77288;BME280;66345;42.694;23.346;2023-07-22T05:22:32;95497.16;;;30.62;40.42
77288;BME280;66345;42.694;23.346;2023-07-22T05:24:58;95498.22;;;30.84;39.18
77288;BME280;66345;42.694;23.346;2023-07-22T05:27:24;95495.41;;;30.35;40.27
77288;BME280;66345;42.694;23.346;2023-07-22T05:29:50;95501.59;;;30.50;40.59
77288;BME280;66345;42.694;23.346;2023-07-22T05:32:15;95501.00;;;30.61;40.25
77288;BME280;66345;42.694;23.346;2023-07-22T05:34:40;95516.59;;;31.40;37.85
77288;BME280;66345;42.694;23.346;2023-07-22T05:37:06;95508.03;;;32.93;35.57
77288;BME280;66345;42.694;23.346;2023-07-22T05:39:31;95510.00;;;33.51;34.30
77288;BME280;66345;42.694;23.346;2023-07-22T05:41:57;95512.75;;;33.93;33.50
77288;BME280;66345;42.694;23.346;2023-07-22T05:44:22;95508.50;;;33.54;33.71
77288;BME280;66345;42.694;23.346;2023-07-22T05:46:48;95508.91;;;34.72;31.54
77288;BME280;66345;42.694;23.346;2023-07-22T05:49:13;95506.78;;;33.49;34.17
77288;BME280;66345;42.694;23.346;2023-07-22T05:51:39;95510.78;;;33.22;35.21
77288;BME280;66345;42.694;23.346;2023-07-22T05:54:04;95506.66;;;34.41;32.88
77288;BME280;66345;42.694;23.346;2023-07-22T05:56:30;95503.03;;;34.29;32.79
77288;BME280;66345;42.694;23.346;2023-07-22T05:58:56;95501.44;;;33.94;33.29
77288;BME280;66345;42.694;23.346;2023-07-22T06:01:23;95495.38;;;35.16;31.59
77288;BME280;66345;42.694;23.346;2023-07-22T06:03:48;95507.00;;;35.22;31.61
77288;BME280;66345;42.694;23.346;2023-07-22T06:06:14;95519.09;;;34.47;33.19
77288;BME280;66345;42.694;23.346;2023-07-22T06:08:39;95527.59;;;36.57;28.54
77288;BME280;66345;42.694;23.346;2023-07-22T06:11:04;95526.97;;;36.80;28.36
77288;BME280;66345;42.694;23.346;2023-07-22T06:13:30;95532.75;;;36.03;30.06
77288;BME280;66345;42.694;23.346;2023-07-22T06:15:56;95537.00;;;36.12;29.31
77288;BME280;66345;42.694;23.346;2023-07-22T06:18:21;95538.69;;;36.73;29.18
77288;BME280;66345;42.694;23.346;2023-07-22T06:20:46;95539.00;;;35.88;30.36
77288;BME280;66345;42.694;23.346;2023-07-22T06:23:12;95540.09;;;36.11;30.34
77288;BME280;66345;42.694;23.346;2023-07-22T06:25:37;95542.69;;;36.76;29.05
77288;BME280;66345;42.694;23.346;2023-07-22T06:28:03;95549.44;;;36.90;29.06
77288;BME280;66345;42.694;23.346;2023-07-22T06:30:28;95548.44;;;37.14;28.72
77288;BME280;66345;42.694;23.346;2023-07-22T06:32:54;95547.19;;;37.43;28.39
77288;BME280;66345;42.694;23.346;2023-07-22T06:35:19;95548.94;;;38.02;27.39
77288;BME280;66345;42.694;23.346;2023-07-22T06:37:45;95546.94;;;39.49;25.11
77288;BME280;66345;42.694;23.346;2023-07-22T06:40:10;95550.78;;;37.95;27.23
77288;BME280;66345;42.694;23.346;2023-07-22T06:42:36;95547.34;;;39.25;25.83
77288;BME280;66345;42.694;23.346;2023-07-22T06:45:02;95558.59;;;38.47;27.19
77288;BME280;66345;42.694;23.346;2023-07-22T06:47:28;95554.94;;;37.54;27.99
77288;BME280;66345;42.694;23.346;2023-07-22T06:49:53;95555.53;;;37.79;27.73
77288;BME280;66345;42.694;23.346;2023-07-22T06:52:19;95550.69;;;38.11;27.39
77288;BME280;66345;42.694;23.346;2023-07-22T06:54:44;95541.53;;;39.86;24.96
77288;BME280;66345;42.694;23.346;2023-07-22T06:57:09;95536.03;;;40.20;23.94
77288;BME280;66345;42.694;23.346;2023-07-22T06:59:35;95540.53;;;37.99;27.10
77288;BME280;66345;42.694;23.346;2023-07-22T07:02:01;95533.38;;;37.79;27.36
77288;BME280;66345;42.694;23.346;2023-07-22T07:04:26;95531.25;;;38.69;25.82
77288;BME280;66345;42.694;23.346;2023-07-22T07:06:52;95529.47;;;39.75;24.64
77288;BME280;66345;42.694;23.346;2023-07-22T07:09:17;95533.53;;;39.55;24.92
77288;BME280;66345;42.694;23.346;2023-07-22T07:11:43;95537.28;;;38.94;26.14
77288;BME280;66345;42.694;23.346;2023-07-22T07:14:08;95529.16;;;40.78;23.39
77288;BME280;66345;42.694;23.346;2023-07-22T07:16:34;95527.63;;;40.84;22.86
77288;BME280;66345;42.694;23.346;2023-07-22T07:19:00;95527.69;;;36.33;29.11
77288;BME280;66345;42.694;23.346;2023-07-22T07:21:27;95525.69;;;38.69;25.32
77288;BME280;66345;42.694;23.346;2023-07-22T07:23:53;95531.66;;;37.07;27.69
77288;BME280;66345;42.694;23.346;2023-07-22T07:26:19;95520.28;;;40.31;23.72
77288;BME280;66345;42.694;23.346;2023-07-22T07:28:46;95516.13;;;39.58;24.60
77288;BME280;66345;42.694;23.346;2023-07-22T07:31:12;95517.88;;;41.00;23.15
77288;BME280;66345;42.694;23.346;2023-07-22T07:33:37;95516.59;;;41.35;22.33
77288;BME280;66345;42.694;23.346;2023-07-22T07:36:03;95517.41;;;41.39;21.84
77288;BME280;66345;42.694;23.346;2023-07-22T07:38:29;95522.97;;;42.01;21.68
77288;BME280;66345;42.694;23.346;2023-07-22T07:40:59;95506.91;;;42.64;20.77
77288;BME280;66345;42.694;23.346;2023-07-22T07:43:25;95514.09;;;41.78;21.61
77288;BME280;66345;42.694;23.346;2023-07-22T07:48:51;95507.25;;;41.17;22.10
77288;BME280;66345;42.694;23.346;2023-07-22T07:51:18;95508.13;;;42.91;20.59
77288;BME280;66345;42.694;23.346;2023-07-22T07:53:45;95504.38;;;44.34;18.86
77288;BME280;66345;42.694;23.346;2023-07-22T07:56:15;95497.22;;;42.29;20.63
77288;BME280;66345;42.694;23.346;2023-07-22T07:58:42;95500.22;;;43.01;20.27
77288;BME280;66345;42.694;23.346;2023-07-22T08:01:07;95494.19;;;42.99;19.71
77288;BME280;66345;42.694;23.346;2023-07-22T08:03:34;95496.69;;;41.99;21.51
77288;BME280;66345;42.694;23.346;2023-07-22T08:06:01;95494.44;;;44.11;18.79
77288;BME280;66345;42.694;23.346;2023-07-22T08:08:27;95490.09;;;42.46;21.26
77288;BME280;66345;42.694;23.346;2023-07-22T08:11:04;95492.50;;;42.51;21.33
77288;BME280;66345;42.694;23.346;2023-07-22T08:13:30;95485.63;;;44.13;18.65
77288;BME280;66345;42.694;23.346;2023-07-22T08:16:01;95489.13;;;44.42;18.62
77288;BME280;66345;42.694;23.346;2023-07-22T08:18:28;95496.16;;;41.75;21.65
77288;BME280;66345;42.694;23.346;2023-07-22T08:20:55;95486.59;;;43.45;19.23
77288;BME280;66345;42.694;23.346;2023-07-22T08:23:21;95492.38;;;44.37;18.48
77288;BME280;66345;42.694;23.346;2023-07-22T08:25:46;95488.72;;;44.43;18.57
77288;BME280;66345;42.694;23.346;2023-07-22T08:28:12;95491.81;;;41.81;21.25
77288;BME280;66345;42.694;23.346;2023-07-22T08:30:37;95478.66;;;44.56;18.53
77288;BME280;66345;42.694;23.346;2023-07-22T08:33:05;95491.94;;;42.06;20.90
77288;BME280;66345;42.694;23.346;2023-07-22T08:35:34;95483.88;;;41.28;22.36
77288;BME280;66345;42.694;23.346;2023-07-22T08:37:59;95472.03;;;40.50;23.54
77288;BME280;66345;42.694;23.346;2023-07-22T08:40:25;95467.56;;;41.93;22.28
77288;BME280;66345;42.694;23.346;2023-07-22T08:42:51;95463.72;;;40.94;22.15
77288;BME280;66345;42.694;23.346;2023-07-22T08:45:17;95453.13;;;43.38;20.11
77288;BME280;66345;42.694;23.346;2023-07-22T08:47:46;95447.19;;;44.35;18.93
77288;BME280;66345;42.694;23.346;2023-07-22T08:50:17;95453.78;;;45.66;17.04
77288;BME280;66345;42.694;23.346;2023-07-22T08:52:45;95435.97;;;45.80;17.16
77288;BME280;66345;42.694;23.346;2023-07-22T08:55:12;95440.97;;;45.65;17.38
77288;BME280;66345;42.694;23.346;2023-07-22T08:57:38;95436.34;;;43.13;19.71
77288;BME280;66345;42.694;23.346;2023-07-22T09:00:04;95438.53;;;39.72;23.66
77288;BME280;66345;42.694;23.346;2023-07-22T09:02:33;95435.38;;;40.85;22.36
77288;BME280;66345;42.694;23.346;2023-07-22T09:04:59;95431.84;;;44.61;18.21
77288;BME280;66345;42.694;23.346;2023-07-22T09:07:25;95428.00;;;44.37;18.28
77288;BME280;66345;42.694;23.346;2023-07-22T09:09:50;95425.78;;;44.69;17.95
77288;BME280;66345;42.694;23.346;2023-07-22T09:12:17;95434.97;;;40.87;21.43
77288;BME280;66345;42.694;23.346;2023-07-22T09:14:43;95429.00;;;42.12;20.30
77288;BME280;66345;42.694;23.346;2023-07-22T09:17:09;95423.00;;;43.92;18.65
77288;BME280;66345;42.694;23.346;2023-07-22T09:19:35;95428.34;;;42.58;20.46
77288;BME280;66345;42.694;23.346;2023-07-22T09:22:00;95427.94;;;42.81;20.08
77288;BME280;66345;42.694;23.346;2023-07-22T09:24:26;95415.09;;;43.69;19.17
77288;BME280;66345;42.694;23.346;2023-07-22T09:26:55;95423.28;;;44.19;18.31
77288;BME280;66345;42.694;23.346;2023-07-22T09:29:37;95412.44;;;46.04;16.80
77288;BME280;66345;42.694;23.346;2023-07-22T09:32:03;95423.59;;;41.61;20.94
77288;BME280;66345;42.694;23.346;2023-07-22T09:34:29;95414.34;;;42.51;20.50
77288;BME280;66345;42.694;23.346;2023-07-22T09:36:57;95409.94;;;46.13;16.45
77288;BME280;66345;42.694;23.346;2023-07-22T09:39:23;95407.00;;;45.15;17.06
77288;BME280;66345;42.694;23.346;2023-07-22T09:41:49;95409.56;;;43.48;18.77
77288;BME280;66345;42.694;23.346;2023-07-22T09:44:15;95407.59;;;42.91;19.62
77288;BME280;66345;42.694;23.346;2023-07-22T09:46:41;95398.84;;;42.72;20.21
77288;BME280;66345;42.694;23.346;2023-07-22T09:49:11;95392.47;;;45.99;16.83
77288;BME280;66345;42.694;23.346;2023-07-22T09:51:40;95390.53;;;44.06;17.95
77288;BME280;66345;42.694;23.346;2023-07-22T09:54:06;95384.03;;;42.46;19.70
77288;BME280;66345;42.694;23.346;2023-07-22T09:56:43;95390.47;;;43.04;19.72
77288;BME280;66345;42.694;23.346;2023-07-22T09:59:10;95391.16;;;46.07;16.31
77288;BME280;66345;42.694;23.346;2023-07-22T10:01:38;95385.63;;;44.87;17.33
77288;BME280;66345;42.694;23.346;2023-07-22T10:04:04;95379.22;;;43.36;18.83
77288;BME280;66345;42.694;23.346;2023-07-22T10:06:31;95376.13;;;44.14;17.94
77288;BME280;66345;42.694;23.346;2023-07-22T10:09:01;95381.50;;;45.81;16.19
77288;BME280;66345;42.694;23.346;2023-07-22T10:11:27;95370.38;;;45.70;17.41
77288;BME280;66345;42.694;23.346;2023-07-22T10:13:55;95385.19;;;47.52;15.00
77288;BME280;66345;42.694;23.346;2023-07-22T10:16:22;95373.13;;;46.35;16.08
77288;BME280;66345;42.694;23.346;2023-07-22T10:18:48;95373.00;;;47.16;15.18
77288;BME280;66345;42.694;23.346;2023-07-22T10:21:15;95373.59;;;44.90;17.36
77288;BME280;66345;42.694;23.346;2023-07-22T10:23:42;95365.56;;;46.01;16.84
77288;BME280;66345;42.694;23.346;2023-07-22T10:26:10;95353.69;;;47.41;13.98
77288;BME280;66345;42.694;23.346;2023-07-22T10:28:40;95346.66;;;46.09;14.96
77288;BME280;66345;42.694;23.346;2023-07-22T10:31:05;95356.38;;;45.32;16.13
77288;BME280;66345;42.694;23.346;2023-07-22T10:33:31;95362.28;;;44.52;16.51
77288;BME280;66345;42.694;23.346;2023-07-22T10:36:08;95351.25;;;43.54;17.36
77288;BME280;66345;42.694;23.346;2023-07-22T10:38:37;95359.06;;;43.91;17.70
77288;BME280;66345;42.694;23.346;2023-07-22T10:41:12;95349.72;;;42.17;18.37
77288;BME280;66345;42.694;23.346;2023-07-22T10:43:39;95358.75;;;40.51;20.62
77288;BME280;66345;42.694;23.346;2023-07-22T10:46:12;95347.22;;;39.40;23.20
77288;BME280;66345;42.694;23.346;2023-07-22T10:48:40;95349.75;;;39.53;21.81
77288;BME280;66345;42.694;23.346;2023-07-22T10:51:11;95353.00;;;38.75;22.09
77288;BME280;66345;42.694;23.346;2023-07-22T10:53:42;95349.66;;;38.40;22.35
77288;BME280;66345;42.694;23.346;2023-07-22T11:01:44;95345.78;;;37.60;24.19
77288;BME280;66345;42.694;23.346;2023-07-22T11:06:38;95334.00;;;37.43;23.84
77288;BME280;66345;42.694;23.346;2023-07-22T11:09:04;95339.22;;;36.94;24.82
77288;BME280;66345;42.694;23.346;2023-07-22T11:14:20;95325.84;;;37.15;24.42
77288;BME280;66345;42.694;23.346;2023-07-22T11:16:47;95322.38;;;36.83;24.59
77288;BME280;66345;42.694;23.346;2023-07-22T11:19:14;95325.34;;;36.75;24.99
77288;BME280;66345;42.694;23.346;2023-07-22T11:21:44;95321.66;;;36.86;25.04
77288;BME280;66345;42.694;23.346;2023-07-22T11:24:10;95324.22;;;36.95;24.64
77288;BME280;66345;42.694;23.346;2023-07-22T11:26:36;95324.63;;;37.13;23.41
77288;BME280;66345;42.694;23.346;2023-07-22T11:29:03;95317.97;;;37.17;23.22
77288;BME280;66345;42.694;23.346;2023-07-22T11:31:34;95317.41;;;36.89;23.99
77288;BME280;66345;42.694;23.346;2023-07-22T11:34:00;95313.31;;;37.02;24.30
77288;BME280;66345;42.694;23.346;2023-07-22T11:36:26;95317.97;;;37.17;24.43
77288;BME280;66345;42.694;23.346;2023-07-22T11:38:52;95305.03;;;37.21;24.27
77288;BME280;66345;42.694;23.346;2023-07-22T11:41:20;95300.00;;;37.46;24.40
77288;BME280;66345;42.694;23.346;2023-07-22T11:43:46;95303.81;;;37.38;23.68
77288;BME280;66345;42.694;23.346;2023-07-22T11:46:11;95298.38;;;37.42;25.17
77288;BME280;66345;42.694;23.346;2023-07-22T11:48:37;95294.69;;;37.18;25.43
77288;BME280;66345;42.694;23.346;2023-07-22T11:51:02;95293.28;;;37.09;24.30
77288;BME280;66345;42.694;23.346;2023-07-22T11:53:28;95294.38;;;36.85;24.88
77288;BME280;66345;42.694;23.346;2023-07-22T11:55:57;95289.00;;;36.41;25.65
77288;BME280;66345;42.694;23.346;2023-07-22T11:58:26;95299.19;;;36.37;25.79
77288;BME280;66345;42.694;23.346;2023-07-22T12:01:06;95292.22;;;36.78;25.00
77288;BME280;66345;42.694;23.346;2023-07-22T12:03:33;95295.59;;;36.87;25.07
77288;BME280;66345;42.694;23.346;2023-07-22T12:06:06;95291.69;;;37.08;25.46
77288;BME280;66345;42.694;23.346;2023-07-22T12:08:33;95287.19;;;37.38;25.68
77288;BME280;66345;42.694;23.346;2023-07-22T12:10:59;95288.88;;;37.04;25.45
77288;BME280;66345;42.694;23.346;2023-07-22T12:13:25;95273.44;;;37.03;25.82
77288;BME280;66345;42.694;23.346;2023-07-22T12:16:04;95280.63;;;37.08;25.20
77288;BME280;66345;42.694;23.346;2023-07-22T12:18:45;95272.44;;;36.95;25.36
77288;BME280;66345;42.694;23.346;2023-07-22T12:21:11;95273.94;;;36.89;25.48
77288;BME280;66345;42.694;23.346;2023-07-22T12:23:38;95276.59;;;36.86;25.64
77288;BME280;66345;42.694;23.346;2023-07-22T12:26:05;95274.44;;;36.79;25.67
77288;BME280;66345;42.694;23.346;2023-07-22T12:28:30;95264.59;;;37.17;25.21
77288;BME280;66345;42.694;23.346;2023-07-22T12:30:56;95268.63;;;37.19;24.99
77288;BME280;66345;42.694;23.346;2023-07-22T12:33:26;95268.47;;;37.32;25.39
77288;BME280;66345;42.694;23.346;2023-07-22T12:35:54;95261.78;;;36.78;25.38
77288;BME280;66345;42.694;23.346;2023-07-22T12:38:20;95271.13;;;36.54;25.21
77288;BME280;66345;42.694;23.346;2023-07-22T12:40:45;95263.81;;;36.62;25.22
77288;BME280;66345;42.694;23.346;2023-07-22T12:43:11;95263.69;;;36.74;25.27
77288;BME280;66345;42.694;23.346;2023-07-22T12:45:36;95261.25;;;36.88;25.12
77288;BME280;66345;42.694;23.346;2023-07-22T12:48:01;95251.44;;;36.91;25.19
77288;BME280;66345;42.694;23.346;2023-07-22T12:50:29;95257.47;;;37.16;24.57
77288;BME280;66345;42.694;23.346;2023-07-22T12:52:55;95249.38;;;37.07;24.66
77288;BME280;66345;42.694;23.346;2023-07-22T12:55:20;95248.22;;;37.08;26.22
77288;BME280;66345;42.694;23.346;2023-07-22T12:57:46;95245.72;;;36.84;24.61
77288;BME280;66345;42.694;23.346;2023-07-22T13:00:12;95253.13;;;36.60;26.14